sensor_id;sensor_type;location;lat;lon;timestamp;P1;durP1;ratioP1;P2;durP2;ratioP2
31730;SDS011;18310;55.586;12.286;2024-01-11T00:02:52;14.77;;;7.50;;
31730;SDS011;18310;55.586;12.286;2024-01-11T00:05:55;13.98;;;7.38;;
31730;SDS011;18310;55.586;12.286;2024-01-11T00:08:58;14.07;;;7.32;;
31730;SDS011;18310;55.586;12.286;2024-01-11T00:12:04;11.60;;;6.80;;
31730;SDS011;18310;55.586;12.286;2024-01-11T00:15:08;10.57;;;6.07;;
31730;SDS011;18310;55.586;12.286;2024-01-11T00:18:12;12.25;;;6.05;;
31730;SDS011;18310;55.586;12.286;2024-01-11T00:21:15;12.00;;;5.43;;
31730;SDS011;18310;55.586;12.286;2024-01-11T00:24:19;9.73;;;5.60;;
31730;SDS011;18310;55.586;12.286;2024-01-11T00:27:24;12.93;;;6.25;;
31730;SDS011;18310;55.586;12.286;2024-01-11T00:30:27;8.65;;;4.97;;
31730;SDS011;18310;55.586;12.286;2024-01-11T00:33:31;9.23;;;4.43;;
31730;SDS011;18310;55.586;12.286;2024-01-11T00:36:35;10.85;;;5.18;;
31730;SDS011;18310;55.586;12.286;2024-01-11T00:39:38;11.63;;;5.10;;
31730;SDS011;18310;55.586;12.286;2024-01-11T00:42:43;7.87;;;4.40;;
31730;SDS011;18310;55.586;12.286;2024-01-11T00:45:46;10.30;;;5.55;;
31730;SDS011;18310;55.586;12.286;2024-01-11T00:48:50;9.57;;;4.63;;
31730;SDS011;18310;55.586;12.286;2024-01-11T00:51:57;9.40;;;5.47;;
31730;SDS011;18310;55.586;12.286;2024-01-11T00:55:00;10.93;;;5.15;;
31730;SDS011;18310;55.586;12.286;2024-01-11T00:58:06;9.10;;;4.80;;
31730;SDS011;18310;55.586;12.286;2024-01-11T01:01:10;7.47;;;4.88;;
31730;SDS011;18310;55.586;12.286;2024-01-11T01:04:13;9.13;;;4.20;;
31730;SDS011;18310;55.586;12.286;2024-01-11T01:07:17;9.90;;;4.75;;
31730;SDS011;18310;55.586;12.286;2024-01-11T01:10:20;8.95;;;4.18;;
31730;SDS011;18310;55.586;12.286;2024-01-11T01:13:24;10.43;;;4.70;;
31730;SDS011;18310;55.586;12.286;2024-01-11T01:16:28;8.88;;;4.75;;
31730;SDS011;18310;55.586;12.286;2024-01-11T01:19:31;9.25;;;4.75;;
31730;SDS011;18310;55.586;12.286;2024-01-11T01:22:35;8.98;;;4.60;;
31730;SDS011;18310;55.586;12.286;2024-01-11T01:25:38;9.23;;;5.28;;
31730;SDS011;18310;55.586;12.286;2024-01-11T01:28:43;11.37;;;4.47;;
31730;SDS011;18310;55.586;12.286;2024-01-11T01:31:47;11.88;;;5.40;;
31730;SDS011;18310;55.586;12.286;2024-01-11T01:34:50;9.60;;;4.60;;
31730;SDS011;18310;55.586;12.286;2024-01-11T01:37:54;9.10;;;4.72;;
31730;SDS011;18310;55.586;12.286;2024-01-11T01:40:57;9.32;;;4.32;;
31730;SDS011;18310;55.586;12.286;2024-01-11T01:44:02;9.65;;;4.60;;
31730;SDS011;18310;55.586;12.286;2024-01-11T01:47:06;8.77;;;4.90;;
31730;SDS011;18310;55.586;12.286;2024-01-11T01:50:11;11.57;;;5.28;;
31730;SDS011;18310;55.586;12.286;2024-01-11T01:53:15;11.65;;;4.88;;
31730;SDS011;18310;55.586;12.286;2024-01-11T01:56:19;9.82;;;4.80;;
31730;SDS011;18310;55.586;12.286;2024-01-11T01:59:25;7.65;;;4.30;;
31730;SDS011;18310;55.586;12.286;2024-01-11T02:02:30;9.57;;;4.30;;
31730;SDS011;18310;55.586;12.286;2024-01-11T02:05:35;10.80;;;4.13;;
31730;SDS011;18310;55.586;12.286;2024-01-11T02:11:44;9.93;;;4.82;;
31730;SDS011;18310;55.586;12.286;2024-01-11T02:14:49;8.30;;;4.38;;
31730;SDS011;18310;55.586;12.286;2024-01-11T02:17:53;10.82;;;4.47;;
31730;SDS011;18310;55.586;12.286;2024-01-11T02:20:57;7.75;;;3.47;;
31730;SDS011;18310;55.586;12.286;2024-01-11T02:24:04;8.75;;;4.28;;
31730;SDS011;18310;55.586;12.286;2024-01-11T02:27:08;7.43;;;4.07;;
31730;SDS011;18310;55.586;12.286;2024-01-11T02:30:12;11.65;;;4.68;;
31730;SDS011;18310;55.586;12.286;2024-01-11T02:33:17;11.95;;;5.07;;
31730;SDS011;18310;55.586;12.286;2024-01-11T02:36:21;9.70;;;4.90;;
31730;SDS011;18310;55.586;12.286;2024-01-11T02:39:26;10.32;;;5.57;;
31730;SDS011;18310;55.586;12.286;2024-01-11T02:42:29;12.18;;;5.38;;
31730;SDS011;18310;55.586;12.286;2024-01-11T02:45:33;14.93;;;5.60;;
31730;SDS011;18310;55.586;12.286;2024-01-11T02:48:37;13.02;;;5.30;;
31730;SDS011;18310;55.586;12.286;2024-01-11T02:51:40;11.30;;;6.18;;
31730;SDS011;18310;55.586;12.286;2024-01-11T02:54:45;13.57;;;5.80;;
31730;SDS011;18310;55.586;12.286;2024-01-11T02:57:48;13.13;;;5.80;;
31730;SDS011;18310;55.586;12.286;2024-01-11T03:00:52;10.98;;;5.90;;
31730;SDS011;18310;55.586;12.286;2024-01-11T03:03:56;12.25;;;5.53;;
31730;SDS011;18310;55.586;12.286;2024-01-11T03:07:00;17.65;;;6.57;;
31730;SDS011;18310;55.586;12.286;2024-01-11T03:10:06;13.40;;;6.17;;
31730;SDS011;18310;55.586;12.286;2024-01-11T03:13:10;14.75;;;6.07;;
31730;SDS011;18310;55.586;12.286;2024-01-11T03:16:14;15.85;;;6.25;;
31730;SDS011;18310;55.586;12.286;2024-01-11T03:19:18;14.65;;;5.35;;
31730;SDS011;18310;55.586;12.286;2024-01-11T03:22:21;14.43;;;6.35;;
31730;SDS011;18310;55.586;12.286;2024-01-11T03:25:26;14.33;;;6.30;;
31730;SDS011;18310;55.586;12.286;2024-01-11T03:28:30;13.48;;;6.13;;
31730;SDS011;18310;55.586;12.286;2024-01-11T03:31:33;19.33;;;6.57;;
31730;SDS011;18310;55.586;12.286;2024-01-11T03:34:37;16.85;;;7.05;;
31730;SDS011;18310;55.586;12.286;2024-01-11T03:37:41;14.88;;;6.22;;
31730;SDS011;18310;55.586;12.286;2024-01-11T03:40:47;14.50;;;7.03;;
31730;SDS011;18310;55.586;12.286;2024-01-11T03:43:50;13.93;;;6.90;;
31730;SDS011;18310;55.586;12.286;2024-01-11T03:46:54;12.57;;;6.38;;
31730;SDS011;18310;55.586;12.286;2024-01-11T03:49:58;17.30;;;6.57;;
31730;SDS011;18310;55.586;12.286;2024-01-11T03:53:01;16.05;;;6.88;;
31730;SDS011;18310;55.586;12.286;2024-01-11T03:56:07;10.50;;;5.93;;
31730;SDS011;18310;55.586;12.286;2024-01-11T03:59:11;11.60;;;4.70;;
31730;SDS011;18310;55.586;12.286;2024-01-11T04:02:15;15.40;;;4.40;;
31730;SDS011;18310;55.586;12.286;2024-01-11T04:05:18;8.95;;;4.13;;
31730;SDS011;18310;55.586;12.286;2024-01-11T04:08:21;9.50;;;4.13;;
31730;SDS011;18310;55.586;12.286;2024-01-11T04:11:28;10.80;;;3.57;;
31730;SDS011;18310;55.586;12.286;2024-01-11T04:14:32;12.07;;;4.35;;
31730;SDS011;18310;55.586;12.286;2024-01-11T04:17:35;8.20;;;3.10;;
31730;SDS011;18310;55.586;12.286;2024-01-11T04:20:39;7.45;;;3.08;;
31730;SDS011;18310;55.586;12.286;2024-01-11T04:23:42;6.32;;;2.92;;
31730;SDS011;18310;55.586;12.286;2024-01-11T04:26:49;7.07;;;3.35;;
31730;SDS011;18310;55.586;12.286;2024-01-11T04:29:52;8.45;;;3.58;;
31730;SDS011;18310;55.586;12.286;2024-01-11T04:32:56;7.97;;;3.42;;
31730;SDS011;18310;55.586;12.286;2024-01-11T04:35:59;7.03;;;3.42;;
31730;SDS011;18310;55.586;12.286;2024-01-11T04:39:03;10.68;;;3.40;;
31730;SDS011;18310;55.586;12.286;2024-01-11T04:42:09;13.48;;;4.00;;
31730;SDS011;18310;55.586;12.286;2024-01-11T04:45:13;10.05;;;3.83;;
31730;SDS011;18310;55.586;12.286;2024-01-11T04:48:16;9.25;;;3.65;;
31730;SDS011;18310;55.586;12.286;2024-01-11T04:51:20;7.75;;;3.63;;
31730;SDS011;18310;55.586;12.286;2024-01-11T04:54:24;8.77;;;3.88;;
31730;SDS011;18310;55.586;12.286;2024-01-11T04:57:29;8.27;;;3.78;;
31730;SDS011;18310;55.586;12.286;2024-01-11T05:00:32;13.43;;;4.32;;
31730;SDS011;18310;55.586;12.286;2024-01-11T05:03:36;8.00;;;3.55;;
31730;SDS011;18310;55.586;12.286;2024-01-11T05:06:39;12.73;;;3.95;;
31730;SDS011;18310;55.586;12.286;2024-01-11T05:09:43;12.48;;;3.67;;
31730;SDS011;18310;55.586;12.286;2024-01-11T05:12:48;7.80;;;3.83;;
31730;SDS011;18310;55.586;12.286;2024-01-11T05:15:51;9.30;;;3.92;;
31730;SDS011;18310;55.586;12.286;2024-01-11T05:18:56;7.32;;;3.03;;
31730;SDS011;18310;55.586;12.286;2024-01-11T05:22:00;9.05;;;4.40;;
31730;SDS011;18310;55.586;12.286;2024-01-11T05:25:04;7.90;;;3.70;;
31730;SDS011;18310;55.586;12.286;2024-01-11T05:28:09;9.38;;;4.10;;
31730;SDS011;18310;55.586;12.286;2024-01-11T05:31:13;11.13;;;3.92;;
31730;SDS011;18310;55.586;12.286;2024-01-11T05:34:19;10.07;;;3.65;;
31730;SDS011;18310;55.586;12.286;2024-01-11T05:37:22;7.35;;;3.83;;
31730;SDS011;18310;55.586;12.286;2024-01-11T05:40:26;5.20;;;3.17;;
31730;SDS011;18310;55.586;12.286;2024-01-11T05:43:31;7.95;;;3.72;;
31730;SDS011;18310;55.586;12.286;2024-01-11T05:46:35;7.55;;;3.53;;
31730;SDS011;18310;55.586;12.286;2024-01-11T05:49:38;13.98;;;3.85;;
31730;SDS011;18310;55.586;12.286;2024-01-11T05:52:43;8.07;;;3.08;;
31730;SDS011;18310;55.586;12.286;2024-01-11T05:55:46;12.80;;;4.05;;
31730;SDS011;18310;55.586;12.286;2024-01-11T05:58:52;10.18;;;3.60;;
31730;SDS011;18310;55.586;12.286;2024-01-11T06:01:56;8.73;;;3.70;;
31730;SDS011;18310;55.586;12.286;2024-01-11T06:05:02;13.68;;;4.25;;
31730;SDS011;18310;55.586;12.286;2024-01-11T06:08:06;12.48;;;3.63;;
31730;SDS011;18310;55.586;12.286;2024-01-11T06:11:09;15.48;;;4.25;;
31730;SDS011;18310;55.586;12.286;2024-01-11T06:14:14;11.43;;;3.33;;
31730;SDS011;18310;55.586;12.286;2024-01-11T06:17:18;9.20;;;2.95;;
31730;SDS011;18310;55.586;12.286;2024-01-11T06:20:21;13.07;;;4.80;;
31730;SDS011;18310;55.586;12.286;2024-01-11T06:23:25;8.07;;;3.20;;
31730;SDS011;18310;55.586;12.286;2024-01-11T06:26:29;6.45;;;3.03;;
31730;SDS011;18310;55.586;12.286;2024-01-11T06:29:39;13.85;;;3.28;;
31730;SDS011;18310;55.586;12.286;2024-01-11T06:32:42;8.68;;;3.72;;
31730;SDS011;18310;55.586;12.286;2024-01-11T06:35:46;6.65;;;3.92;;
31730;SDS011;18310;55.586;12.286;2024-01-11T06:41:53;9.85;;;3.42;;
31730;SDS011;18310;55.586;12.286;2024-01-11T06:44:59;6.80;;;3.40;;
31730;SDS011;18310;55.586;12.286;2024-01-11T06:48:03;12.55;;;3.70;;
31730;SDS011;18310;55.586;12.286;2024-01-11T06:51:12;7.82;;;3.83;;
31730;SDS011;18310;55.586;12.286;2024-01-11T06:54:17;6.53;;;4.07;;
31730;SDS011;18310;55.586;12.286;2024-01-11T06:57:21;7.97;;;3.63;;
31730;SDS011;18310;55.586;12.286;2024-01-11T07:00:26;12.05;;;3.80;;
31730;SDS011;18310;55.586;12.286;2024-01-11T07:03:30;9.55;;;4.47;;
31730;SDS011;18310;55.586;12.286;2024-01-11T07:06:34;7.85;;;4.03;;
31730;SDS011;18310;55.586;12.286;2024-01-11T07:09:38;9.80;;;3.83;;
31730;SDS011;18310;55.586;12.286;2024-01-11T07:12:44;10.73;;;4.55;;
31730;SDS011;18310;55.586;12.286;2024-01-11T07:15:51;8.48;;;3.88;;
31730;SDS011;18310;55.586;12.286;2024-01-11T07:18:54;10.88;;;3.65;;
31730;SDS011;18310;55.586;12.286;2024-01-11T07:21:59;8.80;;;4.13;;
31730;SDS011;18310;55.586;12.286;2024-01-11T07:25:02;7.27;;;3.93;;
31730;SDS011;18310;55.586;12.286;2024-01-11T07:28:06;12.07;;;4.10;;
31730;SDS011;18310;55.586;12.286;2024-01-11T07:31:12;7.93;;;3.58;;
31730;SDS011;18310;55.586;12.286;2024-01-11T07:34:15;9.30;;;3.65;;
31730;SDS011;18310;55.586;12.286;2024-01-11T07:40:23;12.00;;;4.68;;
31730;SDS011;18310;55.586;12.286;2024-01-11T07:43:26;11.43;;;4.38;;
31730;SDS011;18310;55.586;12.286;2024-01-11T07:46:40;11.20;;;4.50;;
31730;SDS011;18310;55.586;12.286;2024-01-11T07:49:54;8.93;;;4.57;;
31730;SDS011;18310;55.586;12.286;2024-01-11T07:52:58;12.25;;;4.93;;
31730;SDS011;18310;55.586;12.286;2024-01-11T07:56:02;12.38;;;4.40;;
31730;SDS011;18310;55.586;12.286;2024-01-11T07:59:06;8.52;;;4.13;;
31730;SDS011;18310;55.586;12.286;2024-01-11T08:02:11;8.18;;;3.78;;
31730;SDS011;18310;55.586;12.286;2024-01-11T08:05:15;6.22;;;3.20;;
31730;SDS011;18310;55.586;12.286;2024-01-11T08:08:18;8.90;;;4.15;;
31730;SDS011;18310;55.586;12.286;2024-01-11T08:11:22;6.90;;;3.50;;
31730;SDS011;18310;55.586;12.286;2024-01-11T08:14:30;7.70;;;4.78;;
31730;SDS011;18310;55.586;12.286;2024-01-11T08:17:35;10.82;;;4.15;;
31730;SDS011;18310;55.586;12.286;2024-01-11T08:20:42;8.52;;;3.78;;
31730;SDS011;18310;55.586;12.286;2024-01-11T08:23:45;7.28;;;3.67;;
31730;SDS011;18310;55.586;12.286;2024-01-11T08:26:51;7.82;;;3.53;;
31730;SDS011;18310;55.586;12.286;2024-01-11T08:29:55;7.53;;;3.90;;
31730;SDS011;18310;55.586;12.286;2024-01-11T08:33:00;6.22;;;3.47;;
31730;SDS011;18310;55.586;12.286;2024-01-11T08:36:06;8.70;;;3.72;;
31730;SDS011;18310;55.586;12.286;2024-01-11T08:39:09;6.53;;;3.70;;
31730;SDS011;18310;55.586;12.286;2024-01-11T08:42:15;6.55;;;3.47;;
31730;SDS011;18310;55.586;12.286;2024-01-11T08:45:18;7.15;;;3.00;;
31730;SDS011;18310;55.586;12.286;2024-01-11T08:54:38;6.32;;;2.80;;
31730;SDS011;18310;55.586;12.286;2024-01-11T08:57:41;4.22;;;2.20;;
31730;SDS011;18310;55.586;12.286;2024-01-11T09:00:44;7.75;;;2.85;;
31730;SDS011;18310;55.586;12.286;2024-01-11T09:03:49;9.65;;;3.65;;
31730;SDS011;18310;55.586;12.286;2024-01-11T09:06:53;5.95;;;2.85;;
31730;SDS011;18310;55.586;12.286;2024-01-11T09:09:58;5.50;;;2.30;;
31730;SDS011;18310;55.586;12.286;2024-01-11T09:13:02;3.50;;;1.85;;
31730;SDS011;18310;55.586;12.286;2024-01-11T09:16:06;3.72;;;1.67;;
31730;SDS011;18310;55.586;12.286;2024-01-11T09:19:13;4.25;;;1.50;;
31730;SDS011;18310;55.586;12.286;2024-01-11T09:22:16;3.63;;;1.70;;
31730;SDS011;18310;55.586;12.286;2024-01-11T09:25:20;4.57;;;2.20;;
31730;SDS011;18310;55.586;12.286;2024-01-11T09:28:23;2.33;;;1.40;;
31730;SDS011;18310;55.586;12.286;2024-01-11T09:31:48;2.92;;;1.40;;
31730;SDS011;18310;55.586;12.286;2024-01-11T09:34:51;3.05;;;1.60;;
31730;SDS011;18310;55.586;12.286;2024-01-11T09:37:55;4.07;;;1.77;;
31730;SDS011;18310;55.586;12.286;2024-01-11T09:40:59;3.13;;;1.70;;
31730;SDS011;18310;55.586;12.286;2024-01-11T09:44:12;3.97;;;1.80;;
31730;SDS011;18310;55.586;12.286;2024-01-11T09:50:23;3.60;;;1.70;;
31730;SDS011;18310;55.586;12.286;2024-01-11T09:53:27;3.63;;;1.90;;
31730;SDS011;18310;55.586;12.286;2024-01-11T09:56:32;2.67;;;1.50;;
31730;SDS011;18310;55.586;12.286;2024-01-11T09:59:38;4.80;;;2.03;;
31730;SDS011;18310;55.586;12.286;2024-01-11T10:02:44;4.82;;;2.30;;
31730;SDS011;18310;55.586;12.286;2024-01-11T10:05:48;3.03;;;1.58;;
31730;SDS011;18310;55.586;12.286;2024-01-11T10:08:54;3.00;;;1.40;;
31730;SDS011;18310;55.586;12.286;2024-01-11T10:11:57;5.75;;;1.85;;
31730;SDS011;18310;55.586;12.286;2024-01-11T10:15:04;4.32;;;1.83;;
31730;SDS011;18310;55.586;12.286;2024-01-11T10:18:12;3.40;;;1.67;;
31730;SDS011;18310;55.586;12.286;2024-01-11T10:21:16;3.35;;;1.75;;
31730;SDS011;18310;55.586;12.286;2024-01-11T10:24:20;4.25;;;1.65;;
31730;SDS011;18310;55.586;12.286;2024-01-11T10:27:28;3.08;;;1.65;;
31730;SDS011;18310;55.586;12.286;2024-01-11T10:30:32;5.68;;;1.60;;
31730;SDS011;18310;55.586;12.286;2024-01-11T10:33:39;3.08;;;1.15;;
31730;SDS011;18310;55.586;12.286;2024-01-11T10:36:42;3.28;;;1.70;;
31730;SDS011;18310;55.586;12.286;2024-01-11T10:40:07;3.15;;;1.67;;
31730;SDS011;18310;55.586;12.286;2024-01-11T10:43:15;2.90;;;1.55;;
31730;SDS011;18310;55.586;12.286;2024-01-11T10:46:24;3.42;;;1.45;;
31730;SDS011;18310;55.586;12.286;2024-01-11T10:49:34;2.90;;;1.33;;
31730;SDS011;18310;55.586;12.286;2024-01-11T10:52:42;4.03;;;1.35;;
31730;SDS011;18310;55.586;12.286;2024-01-11T10:55:54;2.97;;;1.25;;
31730;SDS011;18310;55.586;12.286;2024-01-11T10:58:58;4.80;;;2.42;;
31730;SDS011;18310;55.586;12.286;2024-01-11T11:02:05;5.03;;;2.40;;
31730;SDS011;18310;55.586;12.286;2024-01-11T11:05:12;2.78;;;1.30;;
31730;SDS011;18310;55.586;12.286;2024-01-11T11:08:17;3.88;;;1.98;;
31730;SDS011;18310;55.586;12.286;2024-01-11T11:11:24;3.60;;;2.08;;
31730;SDS011;18310;55.586;12.286;2024-01-11T11:14:35;6.32;;;2.40;;
31730;SDS011;18310;55.586;12.286;2024-01-11T11:17:39;3.05;;;1.85;;
31730;SDS011;18310;55.586;12.286;2024-01-11T11:20:43;4.68;;;2.13;;
31730;SDS011;18310;55.586;12.286;2024-01-11T11:23:48;6.47;;;2.38;;
31730;SDS011;18310;55.586;12.286;2024-01-11T11:26:53;5.78;;;2.38;;
31730;SDS011;18310;55.586;12.286;2024-01-11T11:29:59;4.18;;;1.98;;
31730;SDS011;18310;55.586;12.286;2024-01-11T11:33:15;5.75;;;2.42;;
31730;SDS011;18310;55.586;12.286;2024-01-11T11:36:20;4.93;;;2.22;;
31730;SDS011;18310;55.586;12.286;2024-01-11T11:39:38;5.30;;;2.60;;
31730;SDS011;18310;55.586;12.286;2024-01-11T11:42:45;5.13;;;2.03;;
31730;SDS011;18310;55.586;12.286;2024-01-11T11:45:49;4.90;;;2.50;;
31730;SDS011;18310;55.586;12.286;2024-01-11T11:48:54;5.05;;;2.22;;
31730;SDS011;18310;55.586;12.286;2024-01-11T11:51:58;3.78;;;2.15;;
31730;SDS011;18310;55.586;12.286;2024-01-11T11:55:02;6.45;;;2.50;;
31730;SDS011;18310;55.586;12.286;2024-01-11T11:58:08;6.13;;;2.45;;
31730;SDS011;18310;55.586;12.286;2024-01-11T12:01:16;8.75;;;2.25;;
31730;SDS011;18310;55.586;12.286;2024-01-11T12:04:20;5.70;;;2.35;;
31730;SDS011;18310;55.586;12.286;2024-01-11T12:07:23;6.93;;;2.70;;
31730;SDS011;18310;55.586;12.286;2024-01-11T12:10:27;5.40;;;1.92;;
31730;SDS011;18310;55.586;12.286;2024-01-11T12:13:32;4.63;;;2.22;;
31730;SDS011;18310;55.586;12.286;2024-01-11T12:16:37;5.25;;;1.83;;
31730;SDS011;18310;55.586;12.286;2024-01-11T12:19:40;3.40;;;1.80;;
31730;SDS011;18310;55.586;12.286;2024-01-11T12:23:07;2.92;;;1.67;;
31730;SDS011;18310;55.586;12.286;2024-01-11T12:26:11;3.65;;;1.52;;
31730;SDS011;18310;55.586;12.286;2024-01-11T12:29:17;5.05;;;1.75;;
31730;SDS011;18310;55.586;12.286;2024-01-11T12:32:21;8.18;;;2.05;;
31730;SDS011;18310;55.586;12.286;2024-01-11T12:35:25;3.72;;;1.83;;
31730;SDS011;18310;55.586;12.286;2024-01-11T12:38:31;6.75;;;2.33;;
31730;SDS011;18310;55.586;12.286;2024-01-11T12:41:37;3.97;;;1.83;;
31730;SDS011;18310;55.586;12.286;2024-01-11T12:44:40;6.32;;;1.95;;
31730;SDS011;18310;55.586;12.286;2024-01-11T12:47:44;4.60;;;2.05;;
31730;SDS011;18310;55.586;12.286;2024-01-11T12:50:48;6.43;;;1.85;;
31730;SDS011;18310;55.586;12.286;2024-01-11T12:53:55;6.00;;;1.90;;
31730;SDS011;18310;55.586;12.286;2024-01-11T12:57:00;4.22;;;1.98;;
31730;SDS011;18310;55.586;12.286;2024-01-11T13:00:11;4.55;;;1.95;;
31730;SDS011;18310;55.586;12.286;2024-01-11T13:03:18;7.80;;;1.95;;
31730;SDS011;18310;55.586;12.286;2024-01-11T13:06:22;5.15;;;2.00;;
31730;SDS011;18310;55.586;12.286;2024-01-11T13:09:27;7.97;;;1.73;;
31730;SDS011;18310;55.586;12.286;2024-01-11T13:12:31;6.28;;;2.22;;
31730;SDS011;18310;55.586;12.286;2024-01-11T13:15:34;4.17;;;1.90;;
31730;SDS011;18310;55.586;12.286;2024-01-11T13:18:39;6.05;;;2.28;;
31730;SDS011;18310;55.586;12.286;2024-01-11T13:21:42;5.97;;;2.00;;
31730;SDS011;18310;55.586;12.286;2024-01-11T13:24:47;5.13;;;1.60;;
31730;SDS011;18310;55.586;12.286;2024-01-11T13:27:52;5.72;;;2.00;;
31730;SDS011;18310;55.586;12.286;2024-01-11T13:30:56;6.47;;;2.45;;
31730;SDS011;18310;55.586;12.286;2024-01-11T13:37:03;4.93;;;2.65;;
31730;SDS011;18310;55.586;12.286;2024-01-11T13:40:09;6.20;;;2.22;;
31730;SDS011;18310;55.586;12.286;2024-01-11T13:43:15;7.07;;;2.63;;
31730;SDS011;18310;55.586;12.286;2024-01-11T13:46:20;3.60;;;1.80;;
31730;SDS011;18310;55.586;12.286;2024-01-11T13:49:23;5.78;;;1.90;;
31730;SDS011;18310;55.586;12.286;2024-01-11T13:54:54;5.63;;;1.65;;
31730;SDS011;18310;55.586;12.286;2024-01-11T13:57:58;4.93;;;1.45;;
31730;SDS011;18310;55.586;12.286;2024-01-11T14:01:01;5.87;;;1.97;;
31730;SDS011;18310;55.586;12.286;2024-01-11T14:04:05;7.65;;;1.88;;
31730;SDS011;18310;55.586;12.286;2024-01-11T14:07:08;4.82;;;1.73;;
31730;SDS011;18310;55.586;12.286;2024-01-11T14:10:14;7.18;;;2.03;;
31730;SDS011;18310;55.586;12.286;2024-01-11T14:13:18;8.95;;;2.55;;
31730;SDS011;18310;55.586;12.286;2024-01-11T14:16:22;9.18;;;2.72;;
31730;SDS011;18310;55.586;12.286;2024-01-11T14:19:33;6.18;;;2.63;;
31730;SDS011;18310;55.586;12.286;2024-01-11T14:22:37;10.82;;;2.65;;
31730;SDS011;18310;55.586;12.286;2024-01-11T14:25:42;10.20;;;2.05;;
31730;SDS011;18310;55.586;12.286;2024-01-11T14:28:45;5.47;;;2.40;;
31730;SDS011;18310;55.586;12.286;2024-01-11T14:31:48;7.38;;;2.70;;
31730;SDS011;18310;55.586;12.286;2024-01-11T14:34:51;4.35;;;1.92;;
31730;SDS011;18310;55.586;12.286;2024-01-11T14:37:55;6.85;;;2.00;;
31730;SDS011;18310;55.586;12.286;2024-01-11T14:41:00;8.97;;;1.97;;
31730;SDS011;18310;55.586;12.286;2024-01-11T14:44:04;5.95;;;1.90;;
31730;SDS011;18310;55.586;12.286;2024-01-11T14:47:07;12.63;;;3.45;;
31730;SDS011;18310;55.586;12.286;2024-01-11T14:50:11;5.57;;;2.00;;
31730;SDS011;18310;55.586;12.286;2024-01-11T14:53:15;10.48;;;2.63;;
31730;SDS011;18310;55.586;12.286;2024-01-11T14:56:19;6.10;;;2.33;;
31730;SDS011;18310;55.586;12.286;2024-01-11T14:59:24;5.53;;;2.05;;
31730;SDS011;18310;55.586;12.286;2024-01-11T15:02:27;4.47;;;1.67;;
31730;SDS011;18310;55.586;12.286;2024-01-11T15:05:31;7.50;;;2.03;;
31730;SDS011;18310;55.586;12.286;2024-01-11T15:11:39;2.97;;;1.35;;
31730;SDS011;18310;55.586;12.286;2024-01-11T15:14:43;4.97;;;1.77;;
31730;SDS011;18310;55.586;12.286;2024-01-11T15:17:46;5.43;;;2.28;;
31730;SDS011;18310;55.586;12.286;2024-01-11T15:20:50;9.73;;;2.00;;
31730;SDS011;18310;55.586;12.286;2024-01-11T15:23:53;6.43;;;1.73;;
31730;SDS011;18310;55.586;12.286;2024-01-11T15:26:58;3.97;;;1.55;;
31730;SDS011;18310;55.586;12.286;2024-01-11T15:30:04;8.70;;;2.22;;
31730;SDS011;18310;55.586;12.286;2024-01-11T15:33:09;8.40;;;1.60;;
31730;SDS011;18310;55.586;12.286;2024-01-11T15:36:13;5.50;;;1.85;;
31730;SDS011;18310;55.586;12.286;2024-01-11T15:39:17;4.25;;;1.52;;
31730;SDS011;18310;55.586;12.286;2024-01-11T15:42:31;6.65;;;1.70;;
31730;SDS011;18310;55.586;12.286;2024-01-11T15:45:36;7.00;;;2.35;;
31730;SDS011;18310;55.586;12.286;2024-01-11T15:48:39;7.07;;;2.10;;
31730;SDS011;18310;55.586;12.286;2024-01-11T15:51:43;6.55;;;1.45;;
31730;SDS011;18310;55.586;12.286;2024-01-11T15:54:47;7.45;;;1.85;;
31730;SDS011;18310;55.586;12.286;2024-01-11T15:57:51;5.70;;;1.60;;
31730;SDS011;18310;55.586;12.286;2024-01-11T16:00:59;4.50;;;2.25;;
31730;SDS011;18310;55.586;12.286;2024-01-11T16:07:15;6.15;;;1.60;;
31730;SDS011;18310;55.586;12.286;2024-01-11T16:10:19;4.35;;;1.75;;
31730;SDS011;18310;55.586;12.286;2024-01-11T16:13:28;4.95;;;1.83;;
31730;SDS011;18310;55.586;12.286;2024-01-11T16:16:33;4.45;;;1.77;;
31730;SDS011;18310;55.586;12.286;2024-01-11T16:19:36;5.43;;;1.70;;
31730;SDS011;18310;55.586;12.286;2024-01-11T16:23:04;4.45;;;1.20;;
31730;SDS011;18310;55.586;12.286;2024-01-11T16:26:08;4.72;;;2.10;;
31730;SDS011;18310;55.586;12.286;2024-01-11T16:29:12;5.85;;;2.30;;
31730;SDS011;18310;55.586;12.286;2024-01-11T16:32:16;7.25;;;2.15;;
31730;SDS011;18310;55.586;12.286;2024-01-11T16:35:21;4.15;;;1.92;;
31730;SDS011;18310;55.586;12.286;2024-01-11T16:38:28;11.23;;;2.45;;
31730;SDS011;18310;55.586;12.286;2024-01-11T16:41:33;8.88;;;2.47;;
31730;SDS011;18310;55.586;12.286;2024-01-11T16:44:39;7.53;;;2.15;;
31730;SDS011;18310;55.586;12.286;2024-01-11T16:47:46;5.97;;;2.72;;
31730;SDS011;18310;55.586;12.286;2024-01-11T16:50:53;7.57;;;2.42;;
31730;SDS011;18310;55.586;12.286;2024-01-11T16:54:00;9.07;;;2.47;;
31730;SDS011;18310;55.586;12.286;2024-01-11T16:57:04;5.85;;;2.25;;
31730;SDS011;18310;55.586;12.286;2024-01-11T17:00:28;6.22;;;2.63;;
31730;SDS011;18310;55.586;12.286;2024-01-11T17:03:32;5.72;;;1.90;;
31730;SDS011;18310;55.586;12.286;2024-01-11T17:06:37;7.15;;;2.47;;
31730;SDS011;18310;55.586;12.286;2024-01-11T17:09:40;11.15;;;3.00;;
31730;SDS011;18310;55.586;12.286;2024-01-11T17:12:46;13.38;;;2.55;;
31730;SDS011;18310;55.586;12.286;2024-01-11T17:15:50;5.83;;;2.30;;
31730;SDS011;18310;55.586;12.286;2024-01-11T17:18:54;5.43;;;2.42;;
31730;SDS011;18310;55.586;12.286;2024-01-11T17:21:58;11.15;;;2.40;;
31730;SDS011;18310;55.586;12.286;2024-01-11T17:25:02;8.15;;;2.47;;
31730;SDS011;18310;55.586;12.286;2024-01-11T17:31:11;12.00;;;3.30;;
31730;SDS011;18310;55.586;12.286;2024-01-11T17:34:14;9.50;;;2.88;;
31730;SDS011;18310;55.586;12.286;2024-01-11T17:37:18;9.48;;;3.30;;
31730;SDS011;18310;55.586;12.286;2024-01-11T17:40:23;9.40;;;3.10;;
31730;SDS011;18310;55.586;12.286;2024-01-11T17:43:28;10.52;;;3.58;;
31730;SDS011;18310;55.586;12.286;2024-01-11T17:46:36;8.60;;;2.95;;
31730;SDS011;18310;55.586;12.286;2024-01-11T17:49:42;8.20;;;3.03;;
31730;SDS011;18310;55.586;12.286;2024-01-11T17:52:46;14.63;;;4.05;;
31730;SDS011;18310;55.586;12.286;2024-01-11T17:55:52;12.50;;;4.18;;
31730;SDS011;18310;55.586;12.286;2024-01-11T17:58:56;13.10;;;4.07;;
31730;SDS011;18310;55.586;12.286;2024-01-11T18:02:03;10.50;;;4.50;;
31730;SDS011;18310;55.586;12.286;2024-01-11T18:05:07;13.82;;;4.57;;
31730;SDS011;18310;55.586;12.286;2024-01-11T18:08:12;13.38;;;4.95;;
31730;SDS011;18310;55.586;12.286;2024-01-11T18:11:15;13.30;;;4.50;;
31730;SDS011;18310;55.586;12.286;2024-01-11T18:14:19;10.05;;;4.30;;
31730;SDS011;18310;55.586;12.286;2024-01-11T18:17:24;7.65;;;3.30;;
31730;SDS011;18310;55.586;12.286;2024-01-11T18:20:28;11.35;;;3.40;;
31730;SDS011;18310;55.586;12.286;2024-01-11T18:23:31;10.63;;;3.45;;
31730;SDS011;18310;55.586;12.286;2024-01-11T18:26:35;8.35;;;3.03;;
31730;SDS011;18310;55.586;12.286;2024-01-11T18:29:39;6.82;;;3.20;;
31730;SDS011;18310;55.586;12.286;2024-01-11T18:32:43;7.82;;;3.22;;
31730;SDS011;18310;55.586;12.286;2024-01-11T18:35:48;12.35;;;3.75;;
31730;SDS011;18310;55.586;12.286;2024-01-11T18:38:52;10.68;;;4.50;;
31730;SDS011;18310;55.586;12.286;2024-01-11T18:41:59;11.85;;;3.58;;
31730;SDS011;18310;55.586;12.286;2024-01-11T18:45:04;10.45;;;4.80;;
31730;SDS011;18310;55.586;12.286;2024-01-11T18:48:10;10.68;;;4.45;;